N151H TJPS-CYYZ
Flight info
| Callsign | N151H |
|---|---|
| Flight time | N/A |
| Altitude | 41000 |
| Route | WLFRD2 BQN RTE5 PLING M423 LENNT/N0486F430 L455 KINCH/M086F430 L455 SAVIK/N0488F430 Y486 MOUGH Y484 JFK/N0490F450 Q419 DPK/N0489F430 J95 CFB Q818 WOZEE LINNG3 |
| Aircraft | C750/M-SBDE3FGHRWXY/S |
Departure
| Time | 2026-04-25 21:12 |
|---|---|
| Airport | Mercedita International Airport (TJPS) |
Arrival
| Time | N/A |
|---|---|
| Airport | Toronto Pearson International Airport (CYYZ) |
| Time | Latitude | Longitude | Altitude | Speed | Heading |
|---|---|---|---|---|---|
| 2026-04-25 20:57 | 18.00928 | -66.55980 | 33 ft | 0 kts | 198° |
| 2026-04-25 21:07 | 18.00917 | -66.55992 | 33 ft | 6 kts | 239° |
| 2026-04-25 21:07 | 18.00888 | -66.56036 | 33 ft | 7 kts | 212° |
| 2026-04-25 21:08 | 18.00892 | -66.56114 | 33 ft | 14 kts | 288° |
| 2026-04-25 21:08 | 18.00924 | -66.56212 | 33 ft | 13 kts | 287° |
| 2026-04-25 21:08 | 18.00951 | -66.56299 | 33 ft | 12 kts | 289° |
| 2026-04-25 21:08 | 18.00974 | -66.56373 | 33 ft | 10 kts | 284° |
| 2026-04-25 21:09 | 18.01024 | -66.56541 | 34 ft | 15 kts | 287° |
| 2026-04-25 21:09 | 18.01066 | -66.56671 | 34 ft | 24 kts | 288° |
| 2026-04-25 21:09 | 18.01121 | -66.56859 | 34 ft | 27 kts | 287° |
| 2026-04-25 21:10 | 18.01183 | -66.57033 | 33 ft | 25 kts | 292° |
| 2026-04-25 21:10 | 18.01221 | -66.57190 | 33 ft | 10 kts | 252° |
| 2026-04-25 21:10 | 18.01195 | -66.57210 | 33 ft | 1 kts | 199° |
| 2026-04-25 21:10 | 18.01186 | -66.57213 | 33 ft | 3 kts | 199° |
| 2026-04-25 21:11 | 18.01151 | -66.57226 | 33 ft | 8 kts | 199° |
| 2026-04-25 21:11 | 18.01107 | -66.57194 | 33 ft | 10 kts | 106° |
| 2026-04-25 21:11 | 18.01094 | -66.57150 | 33 ft | 25 kts | 108° |
| 2026-04-25 21:11 | 18.00935 | -66.56635 | 36 ft | 122 kts | 107° |
| 2026-04-25 21:12 | 18.00629 | -66.55651 | 347 ft | 142 kts | 111° |
| 2026-04-25 21:12 | 18.00252 | -66.54622 | 723 ft | 161 kts | 116° |
| 2026-04-25 21:12 | 17.99768 | -66.53552 | 1349 ft | 168 kts | 121° |
| 2026-04-25 21:12 | 17.99567 | -66.53188 | 1496 ft | 173 kts | 123° |
| 2026-04-25 21:13 | 17.99001 | -66.51175 | 2461 ft | 195 kts | 96° |
| 2026-04-25 21:13 | 17.98827 | -66.49652 | 2722 ft | 224 kts | 104° |
| 2026-04-25 21:13 | 17.98354 | -66.48092 | 3313 ft | 226 kts | 112° |
| 2026-04-25 21:13 | 17.97817 | -66.46543 | 4012 ft | 227 kts | 112° |
| 2026-04-25 21:14 | 17.97308 | -66.44946 | 4591 ft | 233 kts | 110° |
| 2026-04-25 21:14 | 17.96721 | -66.43352 | 5131 ft | 235 kts | 122° |
| 2026-04-25 21:14 | 17.95634 | -66.42045 | 5502 ft | 251 kts | 136° |
| 2026-04-25 21:14 | 17.94345 | -66.40673 | 5788 ft | 276 kts | 136° |
| 2026-04-25 21:15 | 17.93007 | -66.39188 | 6538 ft | 280 kts | 135° |
| 2026-04-25 21:15 | 17.91625 | -66.37738 | 7265 ft | 284 kts | 141° |
| 2026-04-25 21:15 | 17.90108 | -66.36381 | 8061 ft | 289 kts | 141° |
| 2026-04-25 21:15 | 17.88594 | -66.34968 | 8889 ft | 294 kts | 140° |
| 2026-04-25 21:16 | 17.86945 | -66.33671 | 9526 ft | 300 kts | 157° |
| 2026-04-25 21:16 | 17.85626 | -66.33275 | 9975 ft | 297 kts | 175° |
| 2026-04-25 21:16 | 17.83596 | -66.33398 | 10727 ft | 291 kts | 195° |
| 2026-04-25 21:16 | 17.81631 | -66.33927 | 11467 ft | 292 kts | 198° |
| 2026-04-25 21:17 | 17.79702 | -66.34614 | 12095 ft | 294 kts | 210° |
| 2026-04-25 21:17 | 17.78158 | -66.35997 | 12802 ft | 292 kts | 231° |
| 2026-04-25 21:17 | 17.77205 | -66.37877 | 13502 ft | 295 kts | 252° |
| 2026-04-25 21:17 | 17.76712 | -66.40686 | 14366 ft | 298 kts | 260° |
| 2026-04-25 21:18 | 17.76209 | -66.44318 | 15384 ft | 304 kts | 265° |
| 2026-04-25 21:18 | 17.76535 | -66.46556 | 15603 ft | 325 kts | 287° |
| 2026-04-25 21:18 | 17.77737 | -66.48648 | 15546 ft | 355 kts | 309° |
| 2026-04-25 21:19 | 17.79752 | -66.50312 | 15549 ft | 379 kts | 324° |
| 2026-04-25 21:19 | 17.82020 | -66.51773 | 16058 ft | 383 kts | 327° |
| 2026-04-25 21:19 | 17.84496 | -66.52868 | 16559 ft | 393 kts | 342° |
| 2026-04-25 21:19 | 17.87224 | -66.53253 | 17130 ft | 400 kts | 356° |
| 2026-04-25 21:20 | 17.90027 | -66.53207 | 17678 ft | 403 kts | 357° |
| 2026-04-25 21:20 | 17.91880 | -66.53437 | 17960 ft | 404 kts | 345° |
| 2026-04-25 21:20 | 17.95364 | -66.54824 | 18726 ft | 399 kts | 327° |
| 2026-04-25 21:20 | 17.97575 | -66.56524 | 19272 ft | 397 kts | 316° |
| 2026-04-25 21:21 | 17.99665 | -66.58452 | 19838 ft | 400 kts | 316° |
| 2026-04-25 21:21 | 18.01770 | -66.60393 | 20405 ft | 403 kts | 316° |
| 2026-04-25 21:21 | 18.03893 | -66.62347 | 20965 ft | 407 kts | 316° |
| 2026-04-25 21:21 | 18.06031 | -66.64320 | 21517 ft | 411 kts | 316° |
| 2026-04-25 21:22 | 18.08158 | -66.66285 | 22086 ft | 414 kts | 316° |
| 2026-04-25 21:22 | 18.10330 | -66.68291 | 22651 ft | 418 kts | 316° |
| 2026-04-25 21:22 | 18.12522 | -66.70314 | 23253 ft | 420 kts | 316° |
| 2026-04-25 21:22 | 18.14730 | -66.72353 | 23771 ft | 424 kts | 316° |
| 2026-04-25 21:23 | 18.16954 | -66.74409 | 24269 ft | 426 kts | 316° |
| 2026-04-25 21:23 | 18.19177 | -66.76465 | 24761 ft | 427 kts | 316° |
| 2026-04-25 21:23 | 18.21412 | -66.78530 | 25335 ft | 428 kts | 315° |
| 2026-04-25 21:23 | 18.23657 | -66.80607 | 25880 ft | 429 kts | 315° |
| 2026-04-25 21:24 | 18.25785 | -66.82757 | 26339 ft | 428 kts | 309° |
| 2026-04-25 21:24 | 18.27763 | -66.85108 | 26876 ft | 429 kts | 308° |
| 2026-04-25 21:24 | 18.29772 | -66.87440 | 27417 ft | 431 kts | 309° |
| 2026-04-25 21:24 | 18.31802 | -66.89769 | 27945 ft | 432 kts | 309° |
| 2026-04-25 21:25 | 18.33823 | -66.92123 | 28517 ft | 433 kts | 308° |
| 2026-04-25 21:25 | 18.35831 | -66.94486 | 29042 ft | 434 kts | 308° |
| 2026-04-25 21:25 | 18.37858 | -66.96854 | 29557 ft | 436 kts | 308° |
| 2026-04-25 21:25 | 18.39897 | -66.99222 | 30042 ft | 437 kts | 308° |
| 2026-04-25 21:26 | 18.42052 | -67.01517 | 30389 ft | 444 kts | 313° |
| 2026-04-25 21:26 | 18.44501 | -67.03548 | 30739 ft | 452 kts | 320° |
| 2026-04-25 21:26 | 18.47209 | -67.05278 | 31174 ft | 457 kts | 326° |
| 2026-04-25 21:26 | 18.50122 | -67.06659 | 31683 ft | 463 kts | 333° |
| 2026-04-25 21:27 | 18.53226 | -67.07661 | 32103 ft | 470 kts | 340° |
| 2026-04-25 21:27 | 18.56482 | -67.08250 | 32534 ft | 478 kts | 347° |
| 2026-04-25 21:27 | 18.59791 | -67.08394 | 32950 ft | 487 kts | 354° |
| 2026-04-25 21:27 | 18.63195 | -67.08071 | 33371 ft | 496 kts | 2° |
| 2026-04-25 21:28 | 18.66603 | -67.07378 | 33786 ft | 499 kts | 5° |
| 2026-04-25 21:28 | 18.70009 | -67.06667 | 34181 ft | 499 kts | 4° |
| 2026-04-25 21:28 | 18.73432 | -67.05969 | 34573 ft | 499 kts | 4° |
| 2026-04-25 21:28 | 18.76844 | -67.05268 | 34953 ft | 500 kts | 4° |
| 2026-04-25 21:29 | 18.80271 | -67.04552 | 35352 ft | 501 kts | 4° |
| 2026-04-25 21:29 | 18.83690 | -67.03839 | 35752 ft | 501 kts | 4° |
| 2026-04-25 21:29 | 18.87110 | -67.03134 | 36163 ft | 501 kts | 4° |
| 2026-04-25 21:29 | 18.90491 | -67.02436 | 36579 ft | 501 kts | 4° |
| 2026-04-25 21:30 | 18.93954 | -67.01716 | 37016 ft | 501 kts | 4° |
| 2026-04-25 21:30 | 18.97337 | -67.01012 | 37450 ft | 501 kts | 4° |
| 2026-04-25 21:30 | 19.00763 | -67.00304 | 37892 ft | 501 kts | 4° |
| 2026-04-25 21:30 | 19.03032 | -66.99836 | 38191 ft | 501 kts | 4° |
| 2026-04-25 21:31 | 19.07608 | -66.98889 | 38773 ft | 500 kts | 4° |
| 2026-04-25 21:31 | 19.11033 | -66.98176 | 39200 ft | 499 kts | 4° |
| 2026-04-25 21:31 | 19.14389 | -66.97479 | 39658 ft | 496 kts | 4° |
| 2026-04-25 21:31 | 19.17774 | -66.96778 | 40106 ft | 494 kts | 4° |
| 2026-04-25 21:32 | 19.21141 | -66.96081 | 40538 ft | 493 kts | 4° |
| 2026-04-25 21:32 | 19.24503 | -66.95382 | 40952 ft | 491 kts | 4° |
| 2026-04-25 21:32 | 19.31317 | -66.93974 | 41000 ft | 507 kts | 4° |
| 2026-04-25 21:33 | 19.38364 | -66.92503 | 41020 ft | 523 kts | 4° |
| 2026-04-25 21:33 | 19.45616 | -66.90995 | 41019 ft | 534 kts | 4° |
| 2026-04-25 21:34 | 19.52871 | -66.89479 | 41017 ft | 535 kts | 4° |
| 2026-04-25 21:34 | 19.60173 | -66.87960 | 41016 ft | 534 kts | 4° |
| 2026-04-25 21:35 | 19.67479 | -66.86433 | 41018 ft | 535 kts | 4° |
| 2026-04-25 21:35 | 19.74782 | -66.84908 | 41012 ft | 534 kts | 4° |
| 2026-04-25 21:36 | 19.82082 | -66.83382 | 41016 ft | 534 kts | 4° |
| 2026-04-25 21:36 | 19.89383 | -66.81854 | 41010 ft | 536 kts | 4° |
| 2026-04-25 21:37 | 19.95490 | -66.80645 | 40991 ft | 533 kts | 0° |
| 2026-04-25 21:37 | 20.00330 | -66.80472 | 40999 ft | 519 kts | 348° |
| 2026-04-25 21:37 | 20.03868 | -66.80984 | 41001 ft | 509 kts | 340° |
| 2026-04-25 21:38 | 20.10696 | -66.82805 | 41019 ft | 506 kts | 338° |
| 2026-04-25 21:38 | 20.17556 | -66.84550 | 41015 ft | 506 kts | 338° |
| 2026-04-25 21:39 | 20.24401 | -66.86359 | 41018 ft | 505 kts | 338° |
| 2026-04-25 21:39 | 20.31246 | -66.88132 | 41022 ft | 506 kts | 338° |
| 2026-04-25 21:40 | 20.38035 | -66.89912 | 41018 ft | 505 kts | 338° |
| 2026-04-25 21:40 | 20.44865 | -66.91695 | 41020 ft | 505 kts | 338° |
| 2026-04-25 21:41 | 20.51701 | -66.93484 | 41019 ft | 505 kts | 338° |
| 2026-04-25 21:41 | 20.58526 | -66.95273 | 41019 ft | 505 kts | 338° |
| 2026-04-25 21:42 | 20.65348 | -66.97060 | 41016 ft | 504 kts | 337° |
| 2026-04-25 21:42 | 20.72167 | -66.98850 | 41015 ft | 504 kts | 337° |
| 2026-04-25 21:43 | 20.78942 | -67.00629 | 41015 ft | 504 kts | 337° |
| 2026-04-25 21:43 | 20.85763 | -67.02423 | 41019 ft | 504 kts | 337° |
| 2026-04-25 21:44 | 20.92583 | -67.04217 | 41019 ft | 504 kts | 337° |
| 2026-04-25 21:45 | 21.02788 | -67.06906 | 41010 ft | 503 kts | 337° |
| 2026-04-25 21:45 | 21.09541 | -67.08686 | 41017 ft | 503 kts | 337° |
| 2026-04-25 21:46 | 21.16341 | -67.10482 | 41014 ft | 503 kts | 337° |
| 2026-04-25 21:46 | 21.23149 | -67.12281 | 41004 ft | 503 kts | 337° |
| 2026-04-25 21:47 | 21.29996 | -67.13840 | 41010 ft | 508 kts | 341° |
| 2026-04-25 21:47 | 21.36977 | -67.15112 | 41013 ft | 508 kts | 341° |
| 2026-04-25 21:48 | 21.43954 | -67.16416 | 41017 ft | 508 kts | 341° |
| 2026-04-25 21:48 | 21.50921 | -67.17695 | 41015 ft | 508 kts | 341° |
| 2026-04-25 21:49 | 21.57846 | -67.18985 | 41018 ft | 508 kts | 341° |
| 2026-04-25 21:49 | 21.64808 | -67.20283 | 41012 ft | 507 kts | 340° |
| 2026-04-25 21:50 | 21.71707 | -67.21734 | 41013 ft | 505 kts | 339° |
| 2026-04-25 21:50 | 21.78646 | -67.23110 | 41010 ft | 506 kts | 340° |
| 2026-04-25 21:51 | 21.85562 | -67.24527 | 41005 ft | 505 kts | 339° |
| 2026-04-25 21:51 | 21.92426 | -67.25915 | 41020 ft | 505 kts | 340° |
| 2026-04-25 21:52 | 21.99335 | -67.27319 | 41026 ft | 504 kts | 339° |
| 2026-04-25 21:52 | 22.06240 | -67.28725 | 41008 ft | 504 kts | 339° |
| 2026-04-25 21:53 | 22.13128 | -67.30125 | 41007 ft | 503 kts | 339° |
| 2026-04-25 21:53 | 22.19979 | -67.31523 | 41019 ft | 503 kts | 339° |
| 2026-04-25 21:54 | 22.26869 | -67.32927 | 41023 ft | 504 kts | 339° |
| 2026-04-25 21:54 | 22.33764 | -67.34336 | 41016 ft | 504 kts | 339° |
| 2026-04-25 21:55 | 22.40653 | -67.35743 | 41022 ft | 503 kts | 339° |
| 2026-04-25 21:55 | 22.47496 | -67.37144 | 41026 ft | 503 kts | 339° |
| 2026-04-25 21:56 | 22.54382 | -67.38553 | 41024 ft | 503 kts | 339° |
| 2026-04-25 21:56 | 22.61269 | -67.39966 | 41026 ft | 503 kts | 339° |
| 2026-04-25 21:57 | 22.68142 | -67.41376 | 41026 ft | 503 kts | 339° |
| 2026-04-25 21:57 | 22.74982 | -67.42782 | 41022 ft | 503 kts | 339° |
| 2026-04-25 21:58 | 22.81856 | -67.44195 | 41021 ft | 503 kts | 339° |
| 2026-04-25 21:58 | 22.88744 | -67.45614 | 41027 ft | 503 kts | 339° |
| 2026-04-25 21:59 | 22.95624 | -67.47031 | 41024 ft | 503 kts | 339° |
| 2026-04-25 21:59 | 23.01351 | -67.48213 | 41028 ft | 503 kts | 339° |
| 2026-04-25 22:00 | 23.12808 | -67.50579 | 41031 ft | 504 kts | 339° |
| 2026-04-25 22:00 | 23.19711 | -67.52006 | 41025 ft | 504 kts | 339° |
| 2026-04-25 22:01 | 23.26611 | -67.53435 | 41036 ft | 504 kts | 339° |
| 2026-04-25 22:01 | 23.31179 | -67.54381 | 41033 ft | 505 kts | 339° |
| 2026-04-25 22:02 | 23.40379 | -67.56289 | 41034 ft | 505 kts | 339° |
| 2026-04-25 22:02 | 23.47278 | -67.57723 | 41014 ft | 505 kts | 339° |
| 2026-04-25 22:03 | 23.54181 | -67.59158 | 41019 ft | 505 kts | 339° |
| 2026-04-25 22:03 | 23.59974 | -67.60364 | 41030 ft | 506 kts | 339° |
| 2026-04-25 22:04 | 23.66846 | -67.61795 | 41014 ft | 506 kts | 339° |
| 2026-04-25 22:04 | 23.73757 | -67.63236 | 41023 ft | 506 kts | 339° |
| 2026-04-25 22:05 | 23.80685 | -67.64683 | 41033 ft | 507 kts | 339° |
| 2026-04-25 22:05 | 23.87616 | -67.66131 | 41043 ft | 507 kts | 339° |
| 2026-04-25 22:06 | 23.94556 | -67.67584 | 41037 ft | 508 kts | 339° |
| 2026-04-25 22:06 | 24.01462 | -67.69030 | 41039 ft | 508 kts | 339° |
| 2026-04-25 22:07 | 24.07281 | -67.70250 | 41044 ft | 508 kts | 339° |
| 2026-04-25 22:07 | 24.15387 | -67.71952 | 41028 ft | 510 kts | 339° |
| 2026-04-25 22:08 | 24.22309 | -67.73406 | 41028 ft | 509 kts | 339° |
| 2026-04-25 22:08 | 24.29284 | -67.74874 | 41034 ft | 510 kts | 340° |
| 2026-04-25 22:09 | 24.36262 | -67.76344 | 41049 ft | 511 kts | 340° |
| 2026-04-25 22:09 | 24.43245 | -67.77817 | 41048 ft | 511 kts | 340° |
| 2026-04-25 22:10 | 24.50235 | -67.79292 | 41051 ft | 511 kts | 340° |
| 2026-04-25 22:10 | 24.57228 | -67.80770 | 41054 ft | 511 kts | 340° |
| 2026-04-25 22:11 | 24.64183 | -67.82242 | 41054 ft | 512 kts | 340° |
| 2026-04-25 22:11 | 24.71200 | -67.83729 | 41056 ft | 513 kts | 340° |
| 2026-04-25 22:12 | 24.78205 | -67.85213 | 41058 ft | 512 kts | 340° |
| 2026-04-25 22:12 | 24.84022 | -67.86450 | 41053 ft | 512 kts | 340° |
| 2026-04-25 22:13 | 24.92174 | -67.88181 | 41059 ft | 512 kts | 340° |
| 2026-04-25 22:13 | 24.99185 | -67.89674 | 41059 ft | 512 kts | 340° |
| 2026-04-25 22:14 | 25.06188 | -67.91166 | 41055 ft | 513 kts | 340° |
| 2026-04-25 22:14 | 25.13207 | -67.92663 | 41061 ft | 513 kts | 340° |
| 2026-04-25 22:15 | 25.20166 | -67.94149 | 41059 ft | 512 kts | 340° |
| 2026-04-25 22:16 | 25.30687 | -67.96399 | 41064 ft | 513 kts | 340° |
| 2026-04-25 22:16 | 25.37690 | -67.97899 | 41064 ft | 513 kts | 340° |
| 2026-04-25 22:17 | 25.44704 | -67.99403 | 41067 ft | 513 kts | 341° |
| 2026-04-25 22:17 | 25.51720 | -68.00910 | 41072 ft | 513 kts | 341° |
| 2026-04-25 22:18 | 25.56360 | -68.01907 | 41070 ft | 513 kts | 341° |
| 2026-04-25 22:18 | 25.65706 | -68.03919 | 41074 ft | 514 kts | 341° |
| 2026-04-25 22:19 | 25.72750 | -68.05436 | 41068 ft | 514 kts | 341° |
| 2026-04-25 22:19 | 25.79783 | -68.06954 | 41078 ft | 515 kts | 341° |
| 2026-04-25 22:20 | 25.86815 | -68.08472 | 41072 ft | 514 kts | 341° |
| 2026-04-25 22:20 | 25.92660 | -68.09736 | 41076 ft | 515 kts | 341° |
| 2026-04-25 22:21 | 26.00844 | -68.11508 | 41077 ft | 515 kts | 341° |
| 2026-04-25 22:21 | 26.07882 | -68.13034 | 41077 ft | 515 kts | 341° |
| 2026-04-25 22:22 | 26.14923 | -68.14562 | 41079 ft | 515 kts | 341° |
| 2026-04-25 22:22 | 26.20767 | -68.15832 | 41083 ft | 515 kts | 341° |
| 2026-04-25 22:23 | 26.28949 | -68.17612 | 41078 ft | 515 kts | 341° |
| 2026-04-25 22:23 | 26.35983 | -68.19145 | 41090 ft | 514 kts | 342° |
| 2026-04-25 22:24 | 26.42969 | -68.20666 | 41073 ft | 510 kts | 342° |
| 2026-04-25 22:24 | 26.49961 | -68.22197 | 41087 ft | 511 kts | 342° |
| 2026-04-25 22:25 | 26.56943 | -68.23721 | 41084 ft | 511 kts | 342° |
| 2026-04-25 22:25 | 26.63880 | -68.25242 | 41085 ft | 511 kts | 342° |
| 2026-04-25 22:26 | 26.70866 | -68.26772 | 41089 ft | 511 kts | 342° |
| 2026-04-25 22:26 | 26.77837 | -68.28303 | 41091 ft | 511 kts | 342° |
| 2026-04-25 22:27 | 26.84818 | -68.29837 | 41093 ft | 511 kts | 342° |
| 2026-04-25 22:27 | 26.91799 | -68.31373 | 41104 ft | 510 kts | 343° |
| 2026-04-25 22:28 | 26.98768 | -68.32908 | 41088 ft | 510 kts | 343° |
| 2026-04-25 22:28 | 27.05694 | -68.34436 | 41087 ft | 510 kts | 343° |
| 2026-04-25 22:29 | 27.12668 | -68.35977 | 41088 ft | 510 kts | 343° |
| 2026-04-25 22:29 | 27.19638 | -68.37518 | 41098 ft | 510 kts | 343° |
| 2026-04-25 22:30 | 27.30050 | -68.39824 | 41101 ft | 510 kts | 343° |
| 2026-04-25 22:30 | 27.35844 | -68.41110 | 41101 ft | 510 kts | 343° |
| 2026-04-25 22:31 | 27.43987 | -68.42919 | 41109 ft | 509 kts | 343° |
| 2026-04-25 22:31 | 27.50948 | -68.44467 | 41107 ft | 509 kts | 344° |
| 2026-04-25 22:32 | 27.57855 | -68.46005 | 41106 ft | 509 kts | 344° |
| 2026-04-25 22:32 | 27.64815 | -68.47557 | 41110 ft | 509 kts | 344° |
| 2026-04-25 22:33 | 27.71773 | -68.49111 | 41110 ft | 508 kts | 344° |
| 2026-04-25 22:33 | 27.78718 | -68.50664 | 41111 ft | 508 kts | 344° |
| 2026-04-25 22:34 | 27.85662 | -68.52218 | 41112 ft | 508 kts | 344° |
| 2026-04-25 22:34 | 27.92553 | -68.53763 | 41112 ft | 508 kts | 344° |
| 2026-04-25 22:35 | 27.99498 | -68.55322 | 41114 ft | 508 kts | 345° |
| 2026-04-25 22:35 | 28.06437 | -68.56882 | 41113 ft | 508 kts | 345° |
| 2026-04-25 22:36 | 28.13373 | -68.58443 | 41117 ft | 508 kts | 345° |
| 2026-04-25 22:36 | 28.20309 | -68.60006 | 41121 ft | 508 kts | 345° |
| 2026-04-25 22:37 | 28.27205 | -68.61562 | 41115 ft | 508 kts | 345° |
| 2026-04-25 22:37 | 28.34160 | -68.63134 | 41121 ft | 507 kts | 345° |
| 2026-04-25 22:38 | 28.41089 | -68.64702 | 41118 ft | 508 kts | 345° |
| 2026-04-25 22:38 | 28.48020 | -68.66272 | 41119 ft | 507 kts | 345° |
| 2026-04-25 22:39 | 28.54944 | -68.67843 | 41117 ft | 507 kts | 345° |
| 2026-04-25 22:39 | 28.61869 | -68.69416 | 41120 ft | 508 kts | 345° |
| 2026-04-25 22:40 | 28.68791 | -68.70990 | 41124 ft | 507 kts | 345° |
| 2026-04-25 22:40 | 28.75702 | -68.72565 | 41121 ft | 507 kts | 345° |
| 2026-04-25 22:41 | 28.82587 | -68.74135 | 41124 ft | 506 kts | 345° |
| 2026-04-25 22:41 | 28.89496 | -68.75713 | 41118 ft | 506 kts | 345° |
| 2026-04-25 22:42 | 28.96417 | -68.77297 | 41124 ft | 506 kts | 345° |
| 2026-04-25 22:42 | 29.03323 | -68.78878 | 41121 ft | 505 kts | 345° |
| 2026-04-25 22:43 | 29.10222 | -68.80461 | 41120 ft | 505 kts | 346° |
| 2026-04-25 22:43 | 29.17081 | -68.82036 | 41122 ft | 505 kts | 346° |
| 2026-04-25 22:44 | 29.23989 | -68.83623 | 41104 ft | 506 kts | 341° |
| 2026-04-25 22:44 | 29.30917 | -68.85224 | 41112 ft | 512 kts | 341° |
| 2026-04-25 22:45 | 29.37912 | -68.86831 | 41032 ft | 513 kts | 341° |